Time;durP1;ratioP1;P1;durP2;ratioP2;P2;SDS_P1;SDS_P2;PMS_P1;PMS_P2;Temp;Humidity;BMP_temperature;BMP_pressure;BME280_temperature;BME280_humidity;BME280_pressure;Samples;Min_cycle;Max_cycle;Signal;HPM_P1;HPM_P2
2021/03/11 00:00:13;;;;;;;40.78;26.27;;;9.00;99.90;;;;;;1853948;76;21118;-73
2021/03/11 00:02:43;;;;;;;38.20;25.62;;;8.90;99.90;;;;;;1856472;76;21059;-73
2021/03/11 00:05:13;;;;;;;35.17;25.77;;;8.70;99.90;;;;;;1849771;76;21565;-72
2021/03/11 00:07:41;;;;;;;33.45;24.90;;;8.70;99.90;;;;;;1850790;76;21114;-72
2021/03/11 00:10:10;;;;;;;37.42;24.57;;;8.80;99.90;;;;;;1848928;76;21658;-73
2021/03/11 00:12:44;;;;;;;36.68;24.70;;;8.70;99.90;;;;;;1847615;76;21100;-72
2021/03/11 00:15:14;;;;;;;30.57;22.87;;;8.60;99.90;;;;;;1843853;76;21130;-72
2021/03/11 00:17:42;;;;;;;34.50;24.18;;;8.60;99.90;;;;;;1850435;76;21067;-73
2021/03/11 00:20:12;;;;;;;38.17;24.20;;;8.50;99.90;;;;;;1851255;76;21133;-73
2021/03/11 00:22:40;;;;;;;33.90;24.35;;;8.40;99.90;;;;;;1856007;76;21176;-73
2021/03/11 00:25:13;;;;;;;33.73;24.45;;;8.60;99.90;;;;;;1851447;76;21049;-72
2021/03/11 00:27:41;;;;;;;35.83;23.90;;;8.60;99.90;;;;;;1847611;76;21778;-72
2021/03/11 00:30:10;;;;;;;32.55;22.42;;;8.60;99.90;;;;;;1848324;76;21783;-72
2021/03/11 00:32:38;;;;;;;34.23;22.15;;;8.50;99.90;;;;;;1848459;76;21119;-73
2021/03/11 00:35:07;;;;;;;32.00;23.65;;;8.40;99.90;;;;;;1845856;76;21216;-71
2021/03/11 00:37:36;;;;;;;32.73;21.97;;;8.60;99.90;;;;;;1847649;76;21079;-72
2021/03/11 00:40:06;;;;;;;32.40;22.40;;;8.60;99.90;;;;;;1847858;76;21236;-73
2021/03/11 00:42:34;;;;;;;34.55;22.37;;;8.60;99.90;;;;;;1853252;76;21134;-73
2021/03/11 00:45:01;;;;;;;34.58;23.05;;;8.60;99.90;;;;;;1852635;76;21083;-73
2021/03/11 00:47:29;;;;;;;36.05;24.32;;;8.60;99.90;;;;;;1851662;76;21115;-73
2021/03/11 00:49:56;;;;;;;36.50;24.77;;;8.40;99.90;;;;;;1846416;76;21548;-71
2021/03/11 00:52:24;;;;;;;38.08;26.27;;;8.40;99.90;;;;;;1848770;76;21682;-74
2021/03/11 00:54:51;;;;;;;39.67;25.97;;;8.30;99.90;;;;;;1852297;76;21217;-72
2021/03/11 00:57:19;;;;;;;36.80;25.65;;;8.30;99.90;;;;;;1847994;76;21228;-72
2021/03/11 00:59:46;;;;;;;38.38;26.25;;;8.30;99.90;;;;;;1849356;76;21168;-74
2021/03/11 01:02:14;;;;;;;34.00;25.08;;;8.30;99.90;;;;;;1850210;76;21257;-73
2021/03/11 01:04:42;;;;;;;38.30;26.35;;;8.30;99.90;;;;;;1849779;76;21107;-72
2021/03/11 01:07:09;;;;;;;40.25;27.17;;;8.10;99.90;;;;;;1849224;76;21634;-72
2021/03/11 01:09:37;;;;;;;41.00;26.82;;;8.10;99.90;;;;;;1846152;76;21635;-72
2021/03/11 01:12:05;;;;;;;41.30;27.37;;;8.10;99.90;;;;;;1856271;76;21208;-72
2021/03/11 01:14:33;;;;;;;40.83;28.10;;;8.20;99.90;;;;;;1849440;76;21146;-72
2021/03/11 01:17:00;;;;;;;37.85;27.15;;;8.40;99.90;;;;;;1852628;76;21681;-72
2021/03/11 01:19:28;;;;;;;38.80;27.32;;;8.10;99.90;;;;;;1849675;76;21119;-73
2021/03/11 01:21:55;;;;;;;41.92;27.07;;;8.00;99.90;;;;;;1850719;76;21138;-72
2021/03/11 01:24:23;;;;;;;39.20;27.32;;;8.10;99.90;;;;;;1846562;76;21072;-72
2021/03/11 01:26:50;;;;;;;43.45;28.32;;;8.00;99.90;;;;;;1850068;76;21068;-72
2021/03/11 01:29:18;;;;;;;39.33;27.42;;;7.90;99.90;;;;;;1849332;76;21160;-72
2021/03/11 01:31:45;;;;;;;43.35;27.82;;;8.00;99.90;;;;;;1848175;76;21283;-73
2021/03/11 01:34:13;;;;;;;40.35;28.27;;;8.10;99.90;;;;;;1854207;76;21093;-72
2021/03/11 01:36:41;;;;;;;38.33;27.60;;;8.10;99.90;;;;;;1847352;76;21193;-73
2021/03/11 01:39:08;;;;;;;43.55;27.58;;;8.20;99.90;;;;;;1847905;76;21044;-73
2021/03/11 01:41:36;;;;;;;40.80;27.32;;;8.30;99.90;;;;;;1851530;76;21197;-72
2021/03/11 01:44:03;;;;;;;37.63;27.77;;;8.20;99.90;;;;;;1849038;76;21122;-73
2021/03/11 01:46:31;;;;;;;41.77;28.02;;;8.20;99.90;;;;;;1848706;76;21127;-73
2021/03/11 01:48:58;;;;;;;36.25;27.07;;;8.40;99.90;;;;;;1852311;76;21243;-74
2021/03/11 01:51:28;;;;;;;36.48;25.57;;;8.40;99.90;;;;;;1852372;76;21710;-73
2021/03/11 01:53:55;;;;;;;38.70;27.02;;;8.30;99.90;;;;;;1848344;76;21127;-73
2021/03/11 01:56:23;;;;;;;41.28;26.87;;;8.30;99.90;;;;;;1851733;76;21091;-72
2021/03/11 01:58:51;;;;;;;38.00;26.50;;;8.30;99.90;;;;;;1847801;76;21145;-72
2021/03/11 02:01:19;;;;;;;42.80;29.25;;;8.20;99.90;;;;;;1849694;76;21106;-73
2021/03/11 02:03:46;;;;;;;42.35;27.37;;;8.20;99.90;;;;;;1849952;76;21770;-73
2021/03/11 02:06:14;;;;;;;38.20;27.27;;;8.20;99.90;;;;;;1855207;76;21197;-73
2021/03/11 02:08:42;;;;;;;39.45;27.95;;;8.30;99.90;;;;;;1851085;76;21087;-72
2021/03/11 02:11:12;;;;;;;38.58;26.25;;;8.30;99.90;;;;;;1850121;76;21288;-72
2021/03/11 02:13:46;;;;;;;39.25;27.45;;;8.50;99.90;;;;;;1856119;76;21169;-73
2021/03/11 02:16:19;;;;;;;37.10;26.33;;;8.50;99.90;;;;;;1849043;76;21141;-71
2021/03/11 02:18:52;;;;;;;39.73;26.12;;;8.40;99.90;;;;;;1851580;76;21172;-71
2021/03/11 02:21:26;;;;;;;36.83;25.25;;;8.30;99.90;;;;;;1849394;76;21236;-74
2021/03/11 02:24:16;;;;;;;38.75;25.82;;;8.30;99.90;;;;;;1849570;76;21079;-71
2021/03/11 02:27:07;;;;;;;36.68;25.92;;;8.40;99.90;;;;;;1850828;76;21138;-71
2021/03/11 02:29:41;;;;;;;35.03;24.72;;;8.60;99.90;;;;;;1849611;76;21184;-72
2021/03/11 02:32:10;;;;;;;38.30;26.07;;;8.50;99.90;;;;;;1848437;76;21139;-72
2021/03/11 02:34:44;;;;;;;36.60;24.45;;;8.40;99.90;;;;;;1846311;76;21200;-70
2021/03/11 02:37:17;;;;;;;36.95;24.92;;;8.40;99.90;;;;;;1853449;76;21223;-72
2021/03/11 02:39:47;;;;;;;38.05;25.48;;;8.50;99.90;;;;;;1850771;76;21106;-72
2021/03/11 02:42:16;;;;;;;35.65;25.10;;;8.40;99.90;;;;;;1849734;76;21151;-72
2021/03/11 02:44:44;;;;;;;37.95;26.48;;;8.40;99.90;;;;;;1850829;76;21114;-72
2021/03/11 02:47:12;;;;;;;42.05;27.42;;;8.40;99.90;;;;;;1848924;76;21142;-72
2021/03/11 02:49:41;;;;;;;33.80;25.60;;;8.50;99.90;;;;;;1851171;76;21118;-73
2021/03/11 02:52:08;;;;;;;35.98;25.23;;;8.40;99.90;;;;;;1846844;76;21161;-73
2021/03/11 02:54:37;;;;;;;36.15;25.17;;;8.50;99.90;;;;;;1854444;76;21102;-72
2021/03/11 02:57:06;;;;;;;38.83;26.35;;;8.60;99.90;;;;;;1847850;76;21143;-73
2021/03/11 02:59:36;;;;;;;36.13;26.52;;;8.60;99.90;;;;;;1845861;76;21197;-73
2021/03/11 03:02:04;;;;;;;37.05;25.43;;;8.30;99.90;;;;;;1851192;76;21306;-73
2021/03/11 03:04:33;;;;;;;39.23;26.10;;;8.40;99.90;;;;;;1849285;76;21967;-73
2021/03/11 03:07:02;;;;;;;36.95;25.75;;;8.40;99.90;;;;;;1848473;76;21236;-73
2021/03/11 03:09:31;;;;;;;33.40;25.00;;;8.50;99.90;;;;;;1849776;76;21106;-73
2021/03/11 03:11:59;;;;;;;37.30;26.27;;;8.60;99.90;;;;;;1852773;76;21079;-73
2021/03/11 03:14:26;;;;;;;34.48;25.72;;;8.70;99.90;;;;;;1850034;76;21051;-73
2021/03/11 03:16:55;;;;;;;40.33;25.12;;;8.80;99.90;;;;;;1856170;76;21098;-74
2021/03/11 03:19:23;;;;;;;34.15;24.23;;;8.80;99.90;;;;;;1847661;76;21052;-73
2021/03/11 03:21:51;;;;;;;33.63;25.05;;;8.70;99.90;;;;;;1853517;76;21134;-73
2021/03/11 03:24:20;;;;;;;34.43;24.65;;;8.70;99.90;;;;;;1855058;76;21133;-73
2021/03/11 03:26:47;;;;;;;40.43;26.77;;;8.70;99.90;;;;;;1851314;76;21091;-73
2021/03/11 03:29:15;;;;;;;39.92;25.60;;;8.70;99.90;;;;;;1851748;76;21569;-73
2021/03/11 03:31:42;;;;;;;35.08;25.62;;;8.60;99.90;;;;;;1850706;76;21159;-73
2021/03/11 03:34:29;;;;;;;35.65;25.68;;;8.60;99.90;;;;;;1851935;76;21099;-74
2021/03/11 03:36:57;;;;;;;35.28;25.02;;;8.70;99.90;;;;;;1877333;76;21070;-73
2021/03/11 03:39:24;;;;;;;39.13;26.05;;;8.50;99.90;;;;;;1875074;76;21551;-72
2021/03/11 03:41:53;;;;;;;40.23;26.10;;;8.50;99.90;;;;;;1875735;76;21206;-73
2021/03/11 03:44:22;;;;;;;39.00;25.08;;;8.50;99.90;;;;;;1872721;76;21109;-72
2021/03/11 03:46:50;;;;;;;35.58;25.70;;;8.50;99.90;;;;;;1874108;76;21128;-72
2021/03/11 03:49:19;;;;;;;40.65;25.32;;;8.60;99.90;;;;;;1874664;76;21140;-72
2021/03/11 03:51:52;;;;;;;35.48;24.60;;;8.60;99.90;;;;;;1871933;76;21245;-72
2021/03/11 03:54:26;;;;;;;36.25;24.23;;;8.60;99.90;;;;;;1877525;75;21054;-71
2021/03/11 03:57:05;;;;;;;35.95;24.67;;;8.50;99.90;;;;;;1871629;76;21578;-73
2021/03/11 03:59:38;;;;;;;33.85;24.27;;;8.40;99.90;;;;;;1873109;76;21605;-73
2021/03/11 04:02:06;;;;;;;38.00;24.52;;;8.50;99.90;;;;;;1876832;76;21171;-72
2021/03/11 04:04:40;;;;;;;34.40;24.43;;;8.50;99.90;;;;;;1878997;76;21101;-73
2021/03/11 04:07:13;;;;;;;37.73;24.90;;;8.40;99.90;;;;;;1874542;76;21114;-72
2021/03/11 04:09:41;;;;;;;36.20;24.00;;;8.40;99.90;;;;;;1872695;76;21923;-72
2021/03/11 04:12:10;;;;;;;31.95;23.83;;;8.40;99.90;;;;;;1877263;76;21078;-72
2021/03/11 04:14:39;;;;;;;35.30;23.75;;;8.40;99.90;;;;;;1872507;76;21547;-73
2021/03/11 04:17:09;;;;;;;32.53;23.10;;;8.50;99.90;;;;;;1875872;76;21030;-72
2021/03/11 04:19:38;;;;;;;37.23;23.70;;;8.50;99.90;;;;;;1874561;76;21073;-72
2021/03/11 04:22:07;;;;;;;33.30;22.98;;;8.60;99.90;;;;;;1879284;74;21613;-72
2021/03/11 04:24:36;;;;;;;31.10;22.48;;;8.50;99.90;;;;;;1873674;76;21093;-72
2021/03/11 04:27:06;;;;;;;30.62;22.42;;;8.50;99.90;;;;;;1878145;76;21368;-72
2021/03/11 04:29:34;;;;;;;31.27;21.50;;;8.60;99.90;;;;;;1875667;76;21175;-72
2021/03/11 04:32:02;;;;;;;31.60;21.37;;;8.70;99.90;;;;;;1875919;76;21144;-72
2021/03/11 04:34:30;;;;;;;27.90;20.92;;;8.50;99.90;;;;;;1877456;76;21101;-72
2021/03/11 04:36:58;;;;;;;34.67;22.20;;;8.50;99.90;;;;;;1874261;75;21210;-72
2021/03/11 04:39:25;;;;;;;32.17;21.95;;;8.60;99.90;;;;;;1874992;76;21089;-72
2021/03/11 04:41:54;;;;;;;31.48;21.90;;;8.60;99.90;;;;;;1871470;76;21065;-72
2021/03/11 04:44:24;;;;;;;30.68;20.97;;;8.60;99.90;;;;;;1878453;76;21104;-71
2021/03/11 04:46:53;;;;;;;29.15;20.72;;;8.60;99.90;;;;;;1875569;76;21496;-72
2021/03/11 04:49:40;;;;;;;30.77;21.48;;;8.60;99.90;;;;;;1876082;76;21170;-72
2021/03/11 04:52:10;;;;;;;27.15;19.95;;;8.70;99.90;;;;;;1923626;73;21587;-70
2021/03/11 04:54:38;;;;;;;28.42;20.62;;;8.80;99.90;;;;;;1924162;73;21207;-70
2021/03/11 04:57:06;;;;;;;28.47;19.60;;;8.90;99.90;;;;;;1922233;73;21035;-70
2021/03/11 04:59:36;;;;;;;27.27;19.00;;;8.90;99.90;;;;;;1928557;73;21066;-70
2021/03/11 05:02:06;;;;;;;28.62;18.65;;;8.80;99.90;;;;;;1954239;73;21102;-70
2021/03/11 05:04:34;;;;;;;27.27;18.62;;;8.70;99.90;;;;;;1954322;72;21168;-70
2021/03/11 05:07:02;;;;;;;26.62;18.85;;;8.70;99.90;;;;;;1957229;73;21552;-70
2021/03/11 05:09:29;;;;;;;24.55;18.32;;;8.70;99.90;;;;;;1953347;73;21480;-70
2021/03/11 05:11:57;;;;;;;25.37;17.50;;;8.80;99.90;;;;;;1956712;73;21261;-69
2021/03/11 05:14:24;;;;;;;22.35;17.90;;;8.80;99.90;;;;;;1951215;73;21071;-70
2021/03/11 05:16:52;;;;;;;23.15;17.67;;;8.80;99.90;;;;;;1952909;73;21215;-69
2021/03/11 05:19:19;;;;;;;23.65;17.45;;;8.80;99.90;;;;;;1950944;73;21661;-70
2021/03/11 05:21:47;;;;;;;26.12;16.77;;;8.90;99.90;;;;;;1956748;72;21078;-69
2021/03/11 05:24:14;;;;;;;23.62;16.82;;;9.00;99.90;;;;;;1956577;72;21059;-70
2021/03/11 05:26:42;;;;;;;24.40;16.70;;;9.00;99.90;;;;;;1956044;72;22262;-70
2021/03/11 05:29:09;;;;;;;27.30;17.37;;;8.90;99.90;;;;;;1957938;73;21098;-69
2021/03/11 05:31:37;;;;;;;22.35;15.23;;;8.80;99.90;;;;;;1952040;71;21222;-70
2021/03/11 05:34:04;;;;;;;21.55;15.83;;;8.80;99.90;;;;;;1948051;73;21066;-70
2021/03/11 05:36:32;;;;;;;21.48;15.68;;;8.80;99.90;;;;;;1952565;73;21063;-69
2021/03/11 05:39:04;;;;;;;20.23;15.40;;;8.80;99.90;;;;;;1949372;73;21007;-70
2021/03/11 05:41:35;;;;;;;20.62;14.93;;;8.90;99.90;;;;;;1954734;73;21129;-69
2021/03/11 05:44:02;;;;;;;17.48;12.63;;;8.90;99.90;;;;;;1959645;73;21078;-70
2021/03/11 05:46:31;;;;;;;22.37;14.23;;;8.80;99.90;;;;;;1958354;73;21265;-69
2021/03/11 05:49:00;;;;;;;19.40;13.90;;;8.80;99.90;;;;;;1950035;73;21070;-69
2021/03/11 05:51:29;;;;;;;19.17;15.23;;;8.90;99.90;;;;;;1950445;73;21601;-70
2021/03/11 05:53:59;;;;;;;19.27;14.45;;;9.00;99.90;;;;;;1960808;73;21140;-70
2021/03/11 05:56:27;;;;;;;15.78;13.20;;;9.00;99.90;;;;;;1960764;72;21134;-69
2021/03/11 05:58:58;;;;;;;18.48;13.45;;;9.00;99.90;;;;;;1960393;72;21094;-69
2021/03/11 06:01:26;;;;;;;17.67;13.32;;;8.90;99.90;;;;;;1960169;71;21115;-70
2021/03/11 06:03:57;;;;;;;16.73;12.70;;;9.10;99.90;;;;;;1952857;73;21029;-70
2021/03/11 06:06:26;;;;;;;16.67;12.37;;;9.10;99.90;;;;;;1954532;71;21177;-69
2021/03/11 06:08:55;;;;;;;15.80;12.05;;;9.10;99.90;;;;;;1953966;73;21090;-70
2021/03/11 06:11:23;;;;;;;15.28;11.83;;;9.10;99.90;;;;;;1953838;72;21157;-68
2021/03/11 06:13:52;;;;;;;15.85;12.03;;;9.10;99.90;;;;;;1958817;73;22037;-69
2021/03/11 06:16:22;;;;;;;14.68;11.57;;;9.20;99.90;;;;;;1949515;73;21118;-71
2021/03/11 06:18:51;;;;;;;15.88;12.15;;;9.20;99.90;;;;;;1957025;73;21547;-70
2021/03/11 06:21:19;;;;;;;14.78;11.55;;;9.30;99.90;;;;;;1953730;73;21063;-69
2021/03/11 06:23:47;;;;;;;17.35;11.75;;;9.20;99.90;;;;;;1954830;73;21113;-70
2021/03/11 06:26:15;;;;;;;15.72;11.70;;;9.00;99.90;;;;;;1952962;73;21079;-70
2021/03/11 06:28:48;;;;;;;18.05;13.05;;;9.10;99.90;;;;;;1952174;73;21082;-70
2021/03/11 06:31:30;;;;;;;16.37;11.85;;;9.10;99.90;;;;;;1951683;73;21162;-71
2021/03/11 06:34:00;;;;;;;17.32;12.20;;;9.00;99.90;;;;;;1949483;72;21133;-71
2021/03/11 06:36:31;;;;;;;19.85;12.37;;;9.00;99.90;;;;;;1954193;73;21172;-71
2021/03/11 06:38:59;;;;;;;16.52;12.53;;;9.00;99.90;;;;;;1956176;73;21141;-71
2021/03/11 06:41:46;;;;;;;14.83;12.53;;;9.00;99.90;;;;;;1957668;73;21083;-70
2021/03/11 06:44:14;;;;;;;15.45;12.05;;;9.10;99.90;;;;;;1950320;73;21075;-71
2021/03/11 06:46:59;;;;;;;15.05;12.03;;;9.10;99.90;;;;;;1953864;73;21102;-71
2021/03/11 06:49:27;;;;;;;15.90;12.78;;;9.00;99.90;;;;;;1951124;73;21094;-69
2021/03/11 06:52:12;;;;;;;13.80;11.95;;;9.10;99.90;;;;;;1951504;73;21118;-70
2021/03/11 06:54:56;;;;;;;16.90;12.45;;;9.20;99.90;;;;;;1952621;71;21067;-70
2021/03/11 06:57:35;;;;;;;12.88;11.45;;;9.20;99.90;;;;;;1958947;73;21062;-72
2021/03/11 07:00:23;;;;;;;15.88;12.18;;;9.20;99.90;;;;;;1956837;73;21675;-70
2021/03/11 07:02:55;;;;;;;14.07;11.50;;;9.40;99.90;;;;;;1957413;73;21155;-72
2021/03/11 07:05:23;;;;;;;;;;;9.50;99.90;;;;;;1959919;73;21122;-71
2021/03/11 07:08:13;;;;;;;13.45;11.75;;;9.50;99.90;;;;;;1958494;73;20205;-71
2021/03/11 07:10:43;;;;;;;13.68;11.28;;;9.40;99.90;;;;;;1956313;73;21572;-71
2021/03/11 07:13:11;;;;;;;15.10;11.70;;;9.40;99.90;;;;;;1950122;71;21152;-71
2021/03/11 07:15:39;;;;;;;12.50;10.80;;;9.40;99.90;;;;;;1948312;72;21215;-71
2021/03/11 07:18:10;;;;;;;13.62;11.40;;;9.30;99.90;;;;;;1952237;72;21116;-70
2021/03/11 07:20:38;;;;;;;12.98;10.93;;;9.40;99.90;;;;;;1947460;72;22447;-71
2021/03/11 07:23:10;;;;;;;13.45;11.03;;;9.40;99.90;;;;;;1954066;72;21204;-70
2021/03/11 07:25:40;;;;;;;12.93;11.50;;;9.50;99.90;;;;;;1951641;73;21161;-72
2021/03/11 07:28:10;;;;;;;15.63;11.30;;;9.50;99.90;;;;;;1945543;73;21126;-71
2021/03/11 07:30:49;;;;;;;14.05;10.80;;;9.50;99.90;;;;;;1950521;73;21258;-71
2021/03/11 07:33:18;;;;;;;13.98;10.10;;;9.70;99.90;;;;;;1948551;72;21150;-70
2021/03/11 07:35:48;;;;;;;13.35;11.55;;;9.70;99.90;;;;;;1946760;71;21573;-71
2021/03/11 07:38:23;;;;;;;13.45;10.78;;;9.50;99.90;;;;;;1944992;72;21070;-71
2021/03/11 07:40:53;;;;;;;17.25;11.55;;;9.60;99.90;;;;;;1946027;73;21211;-71
2021/03/11 07:43:22;;;;;;;12.80;11.50;;;9.70;99.90;;;;;;1945992;71;21108;-71
2021/03/11 07:45:50;;;;;;;16.37;12.60;;;9.60;99.90;;;;;;1952638;72;21500;-70
2021/03/11 07:48:18;;;;;;;17.07;12.45;;;9.60;99.90;;;;;;1943188;72;21121;-69
2021/03/11 07:50:45;;;;;;;14.70;12.35;;;9.80;99.90;;;;;;1952099;73;21099;-70
2021/03/11 07:53:13;;;;;;;13.00;11.60;;;9.80;99.90;;;;;;1947575;73;21098;-70
2021/03/11 07:55:40;;;;;;;14.95;12.65;;;9.90;99.90;;;;;;1949883;73;21075;-70
2021/03/11 07:58:11;;;;;;;13.83;11.78;;;9.80;99.90;;;;;;1943022;73;21087;-72
2021/03/11 08:00:39;;;;;;;14.78;12.28;;;9.90;99.90;;;;;;1947713;73;21511;-72
2021/03/11 08:03:12;;;;;;;15.58;13.00;;;9.90;99.90;;;;;;1947218;73;21211;-71
2021/03/11 08:05:40;;;;;;;14.65;13.15;;;10.00;99.90;;;;;;1944664;73;21106;-72
2021/03/11 08:08:21;;;;;;;17.62;12.55;;;10.00;99.90;;;;;;1952948;73;22580;-73
2021/03/11 08:10:51;;;;;;;14.80;12.43;;;10.10;99.90;;;;;;1949750;73;21115;-72
2021/03/11 08:13:36;;;;;;;16.35;12.80;;;10.00;99.90;;;;;;1951649;73;21090;-71
2021/03/11 08:16:22;;;;;;;17.17;12.70;;;10.10;99.90;;;;;;1954991;73;21153;-71
2021/03/11 08:18:53;;;;;;;16.90;13.65;;;10.30;99.90;;;;;;1949143;72;21138;-72
2021/03/11 08:21:36;;;;;;;14.60;11.90;;;10.40;99.90;;;;;;1956948;73;21176;-70
2021/03/11 08:24:06;;;;;;;14.85;12.10;;;10.50;99.90;;;;;;1950785;73;21153;-72
2021/03/11 08:26:42;;;;;;;17.35;11.75;;;10.60;99.90;;;;;;1948423;73;21146;-72
2021/03/11 08:29:18;;;;;;;13.75;11.20;;;10.60;99.90;;;;;;1953979;73;21738;-72
2021/03/11 08:31:47;;;;;;;14.58;10.65;;;10.60;99.90;;;;;;1944517;73;21039;-70
2021/03/11 08:34:37;;;;;;;15.05;10.00;;;10.70;99.90;;;;;;1954360;73;21030;-71
2021/03/11 08:37:22;;;;;;;14.73;10.90;;;10.80;99.90;;;;;;1952154;73;21489;-72
2021/03/11 08:39:50;;;;;;;12.70;9.80;;;10.90;99.90;;;;;;1956950;73;21175;-71
2021/03/11 08:42:45;;;;;;;14.13;10.23;;;10.90;99.90;;;;;;1957555;73;21615;-71
2021/03/11 08:45:12;;;;;;;14.93;9.70;;;11.00;99.90;;;;;;1949375;73;21575;-71
2021/03/11 08:48:16;;;;;;;18.12;10.88;;;11.00;99.90;;;;;;1947215;73;21571;-69
2021/03/11 08:50:46;;;;;;;12.35;9.45;;;11.20;99.90;;;;;;1951385;72;21115;-72
2021/03/11 08:53:15;;;;;;;12.75;8.55;;;11.40;99.90;;;;;;1954579;73;21127;-72
2021/03/11 08:55:43;;;;;;;11.48;9.08;;;11.50;99.90;;;;;;1957720;72;21055;-71
2021/03/11 08:58:28;;;;;;;14.60;9.45;;;11.60;99.90;;;;;;1948157;73;21092;-71
2021/03/11 09:00:58;;;;;;;11.33;8.60;;;11.70;99.90;;;;;;1952452;73;21540;-72
2021/03/11 09:03:42;;;;;;;13.98;9.15;;;11.80;99.90;;;;;;1951331;73;21082;-71
2021/03/11 09:06:12;;;;;;;12.13;8.33;;;11.90;99.90;;;;;;1952681;73;22170;-71
2021/03/11 09:08:53;;;;;;;12.90;7.90;;;11.90;99.90;;;;;;1952380;73;21618;-72
2021/03/11 09:11:23;;;;;;;13.93;8.35;;;11.90;99.90;;;;;;1951643;72;21212;-72
2021/03/11 09:13:53;;;;;;;13.08;8.88;;;11.90;99.90;;;;;;1945863;71;21207;-70
2021/03/11 09:16:27;;;;;;;13.48;8.50;;;11.90;99.90;;;;;;1948168;72;21254;-71
2021/03/11 09:18:56;;;;;;;11.30;7.97;;;11.90;99.90;;;;;;1944693;71;21141;-71
2021/03/11 09:21:33;;;;;;;11.33;7.40;;;12.00;99.90;;;;;;1948481;71;21138;-72
2021/03/11 09:24:02;;;;;;;11.25;6.75;;;12.20;99.90;;;;;;1952270;73;21118;-70
2021/03/11 09:26:36;;;;;;;11.68;6.67;;;12.30;99.90;;;;;;1942763;73;21165;-71
2021/03/11 09:29:01;;;;;;;11.30;6.13;;;12.50;99.90;;;;;;1943599;71;21165;-71
2021/03/11 09:31:29;;;;;;;9.50;5.60;;;12.40;99.90;;;;;;1939533;73;21388;-72
2021/03/11 09:33:59;;;;;;;11.57;5.90;;;12.40;99.90;;;;;;1945435;71;21164;-71
2021/03/11 09:36:27;;;;;;;7.85;5.10;;;12.60;99.90;;;;;;1947816;73;21148;-70
2021/03/11 09:39:05;;;;;;;8.05;4.90;;;12.70;99.90;;;;;;1947272;71;21098;-70
2021/03/11 09:41:35;;;;;;;7.50;5.00;;;12.90;99.90;;;;;;1951060;73;21119;-71
2021/03/11 09:44:06;;;;;;;13.18;5.35;;;13.00;99.90;;;;;;1950690;73;21115;-71
2021/03/11 09:46:34;;;;;;;7.62;5.33;;;13.10;99.90;;;;;;1944798;71;21118;-71
2021/03/11 09:49:03;;;;;;;10.70;5.37;;;13.10;99.90;;;;;;1944674;73;21082;-71
2021/03/11 09:51:34;;;;;;;12.07;5.80;;;13.20;99.90;;;;;;1948209;73;21227;-71
2021/03/11 09:54:07;;;;;;;9.50;4.93;;;13.20;99.90;;;;;;1948085;71;21137;-71
2021/03/11 09:56:40;;;;;;;16.87;5.42;;;13.40;99.90;;;;;;1947336;73;21098;-70
2021/03/11 09:59:09;;;;;;;10.15;4.42;;;13.30;99.90;;;;;;1949904;73;21195;-72
2021/03/11 10:01:41;;;;;;;12.37;4.95;;;13.20;99.90;;;;;;1942768;72;21165;-72
2021/03/11 10:04:21;;;;;;;12.28;5.58;;;13.10;99.90;;;;;;1947981;73;21114;-72
2021/03/11 10:06:53;;;;;;;12.18;5.87;;;12.90;99.90;;;;;;1947051;71;21117;-72
2021/03/11 10:09:22;;;;;;;11.57;6.17;;;12.90;99.90;;;;;;1943033;71;21101;-70
2021/03/11 10:11:53;;;;;;;8.28;5.92;;;12.80;99.90;;;;;;1946862;72;21521;-71
2021/03/11 10:14:29;;;;;;;9.58;5.75;;;12.70;99.90;;;;;;1948933;72;21031;-70
2021/03/11 10:16:58;;;;;;;11.73;5.97;;;12.70;99.90;;;;;;1955615;71;21019;-70
2021/03/11 10:19:31;;;;;;;11.85;5.83;;;12.70;99.90;;;;;;1958209;73;21654;-70
2021/03/11 10:22:05;;;;;;;9.20;5.70;;;12.60;99.90;;;;;;1947169;72;21082;-70
2021/03/11 10:24:35;;;;;;;10.90;6.22;;;12.60;99.90;;;;;;1955203;73;20996;-70
2021/03/11 10:27:04;;;;;;;10.15;4.62;;;12.80;99.90;;;;;;1948196;71;21075;-70
2021/03/11 10:29:34;;;;;;;9.00;4.08;;;13.00;99.90;;;;;;1953120;73;21086;-70
2021/03/11 10:32:04;;;;;;;12.13;4.83;;;13.10;99.90;;;;;;1949179;71;21088;-70
2021/03/11 10:34:34;;;;;;;16.67;5.08;;;13.20;99.90;;;;;;1956453;72;21117;-70
2021/03/11 10:37:02;;;;;;;12.13;5.05;;;13.20;99.90;;;;;;1946071;72;21098;-70
2021/03/11 10:39:29;;;;;;;12.20;4.65;;;13.30;99.90;;;;;;1944194;73;21568;-70
2021/03/11 10:42:05;;;;;;;11.95;3.90;;;13.60;99.90;;;;;;1959303;73;21086;-71
2021/03/11 10:44:39;;;;;;;13.35;4.33;;;13.70;99.90;;;;;;1949263;72;21171;-70
2021/03/11 10:47:16;;;;;;;13.58;4.53;;;13.90;99.90;;;;;;1951182;71;21190;-70
2021/03/11 10:49:44;;;;;;;13.40;4.05;;;13.80;99.90;;;;;;1943921;73;21097;-69
2021/03/11 10:52:13;;;;;;;13.83;4.40;;;13.50;99.90;;;;;;1953332;73;21083;-70
2021/03/11 10:54:41;;;;;;;9.70;4.25;;;13.40;99.90;;;;;;1942869;72;21631;-70
2021/03/11 10:57:15;;;;;;;12.70;4.22;;;13.40;99.90;;;;;;1947162;73;21063;-70
2021/03/11 11:00:02;;;;;;;12.88;4.12;;;13.20;99.90;;;;;;1950884;71;21262;-70
2021/03/11 11:02:30;;;;;;;10.32;3.15;;;13.30;99.90;;;;;;1951178;73;21268;-70
2021/03/11 11:04:59;;;;;;;11.73;3.00;;;13.20;99.90;;;;;;1948981;73;21081;-70
2021/03/11 11:07:27;;;;;;;10.95;3.40;;;12.80;99.90;;;;;;1943264;73;21118;-69
2021/03/11 11:09:55;;;;;;;12.78;3.02;;;12.60;99.90;;;;;;1941857;72;21251;-70
2021/03/11 11:12:23;;;;;;;13.85;3.15;;;12.70;99.90;;;;;;1943073;73;21047;-70
2021/03/11 11:14:51;;;;;;;14.70;3.45;;;12.60;99.90;;;;;;1949893;73;21078;-70
2021/03/11 11:17:19;;;;;;;13.30;3.50;;;12.70;99.90;;;;;;1946810;73;21091;-71
2021/03/11 11:19:46;;;;;;;14.68;3.35;;;12.80;99.90;;;;;;1956342;73;21118;-69
2021/03/11 11:22:14;;;;;;;16.10;3.67;;;12.80;99.90;;;;;;1953112;73;21544;-71
2021/03/11 11:24:42;;;;;;;12.95;4.03;;;13.00;99.90;;;;;;1955437;72;21525;-70
2021/03/11 11:27:12;;;;;;;13.28;4.28;;;13.20;99.90;;;;;;1955584;73;21039;-70
2021/03/11 11:29:39;;;;;;;19.55;4.55;;;13.30;99.90;;;;;;1945626;73;21205;-70
2021/03/11 11:32:07;;;;;;;16.70;3.50;;;13.70;99.90;;;;;;1947621;73;21082;-71
2021/03/11 11:34:35;;;;;;;18.25;3.72;;;13.90;99.90;;;;;;1948401;73;21208;-71
2021/03/11 11:37:03;;;;;;;19.27;4.33;;;14.00;99.90;;;;;;1953545;73;21160;-70
2021/03/11 11:39:31;;;;;;;16.95;4.17;;;14.10;99.90;;;;;;1947241;73;21583;-70
2021/03/11 11:41:58;;;;;;;16.95;4.30;;;14.20;99.90;;;;;;1956878;73;21086;-70
2021/03/11 11:44:26;;;;;;;22.60;4.90;;;14.40;99.90;;;;;;1961598;73;21116;-71
2021/03/11 11:46:53;;;;;;;20.23;4.95;;;14.20;99.90;;;;;;1955071;73;21468;-71
2021/03/11 11:49:21;;;;;;;20.62;4.22;;;14.00;99.90;;;;;;1944081;71;21727;-69
2021/03/11 11:51:48;;;;;;;22.30;4.95;;;14.00;99.90;;;;;;1945341;73;21106;-69
2021/03/11 11:54:16;;;;;;;19.67;4.67;;;13.90;99.90;;;;;;1948215;73;21059;-71
2021/03/11 11:56:43;;;;;;;24.47;4.03;;;13.80;99.90;;;;;;1942770;72;21098;-70
2021/03/11 11:59:11;;;;;;;24.23;4.78;;;13.60;99.90;;;;;;1957438;73;21086;-69
2021/03/11 12:01:38;;;;;;;23.98;4.33;;;13.60;99.90;;;;;;1952896;73;21119;-70
2021/03/11 12:04:06;;;;;;;27.95;4.40;;;13.50;99.90;;;;;;1950590;71;21490;-70
2021/03/11 12:06:34;;;;;;;25.43;5.20;;;13.40;99.90;;;;;;1952211;73;21141;-70
2021/03/11 12:09:01;;;;;;;25.23;4.30;;;13.20;99.90;;;;;;1952050;71;21381;-71
2021/03/11 12:11:29;;;;;;;24.57;4.30;;;13.00;99.90;;;;;;1948956;73;21518;-69
2021/03/11 12:13:56;;;;;;;22.70;4.80;;;12.70;99.90;;;;;;1952104;73;21482;-69
2021/03/11 12:16:24;;;;;;;21.55;4.25;;;12.60;99.90;;;;;;1956441;71;21222;-70
2021/03/11 12:18:51;;;;;;;16.90;4.00;;;12.40;99.90;;;;;;1950415;71;21180;-69
2021/03/11 12:21:19;;;;;;;24.20;4.37;;;12.50;99.90;;;;;;1953711;73;21070;-69
2021/03/11 12:23:47;;;;;;;14.95;3.85;;;12.50;99.90;;;;;;1951111;73;21074;-70
2021/03/11 12:26:15;;;;;;;23.45;4.80;;;12.50;99.90;;;;;;1951367;72;21204;-71
2021/03/11 12:28:43;;;;;;;22.37;4.72;;;12.40;99.90;;;;;;1946711;73;21159;-71
2021/03/11 12:31:12;;;;;;;21.75;4.20;;;12.40;99.90;;;;;;1955550;71;21125;-72
2021/03/11 12:33:40;;;;;;;23.22;4.10;;;12.50;99.90;;;;;;1956021;73;21033;-71
2021/03/11 12:36:09;;;;;;;21.40;4.40;;;12.60;99.90;;;;;;1952815;71;21086;-71
2021/03/11 12:38:37;;;;;;;21.27;4.47;;;12.50;99.90;;;;;;1956271;73;21015;-70
2021/03/11 12:41:06;;;;;;;22.10;3.65;;;12.50;99.90;;;;;;1955747;72;21155;-71
2021/03/11 12:43:33;;;;;;;24.92;4.42;;;12.50;99.90;;;;;;1960812;73;21011;-71
2021/03/11 12:46:01;;;;;;;19.35;4.10;;;12.50;99.90;;;;;;1953719;73;21170;-71
2021/03/11 12:48:29;;;;;;;21.57;4.53;;;12.60;99.90;;;;;;1955493;72;21011;-72
2021/03/11 12:50:56;;;;;;;19.35;3.95;;;12.60;99.90;;;;;;1949795;73;21191;-72
2021/03/11 12:53:24;;;;;;;17.73;4.08;;;12.60;99.90;;;;;;1955754;73;21094;-71